createdAt,value
2023-04-27T00:00:20.661Z,3.90
2023-04-27T00:02:48.737Z,3.80
2023-04-27T00:05:17.072Z,3.80
2023-04-27T00:07:45.277Z,3.80
2023-04-27T00:10:14.526Z,3.80
2023-04-27T00:12:43.879Z,3.80
2023-04-27T00:15:12.122Z,3.70
2023-04-27T00:17:40.121Z,3.70
2023-04-27T00:20:11.835Z,3.70
2023-04-27T00:22:41.325Z,3.70
2023-04-27T00:25:12.530Z,3.70
2023-04-27T00:27:44.375Z,3.70
2023-04-27T00:30:12.776Z,3.60
2023-04-27T00:32:42.293Z,3.60
2023-04-27T00:35:11.294Z,3.60
2023-04-27T00:37:39.281Z,3.50
2023-04-27T00:40:08.001Z,3.60
2023-04-27T00:42:36.325Z,3.60
2023-04-27T00:45:06.197Z,3.50
2023-04-27T00:47:34.454Z,3.40
2023-04-27T00:50:08.474Z,3.40
2023-04-27T00:52:37.252Z,3.40
2023-04-27T00:55:05.856Z,3.40
2023-04-27T00:57:34.519Z,3.40
2023-04-27T01:00:04.933Z,3.40
2023-04-27T01:02:34.397Z,3.40
2023-04-27T01:05:03.421Z,3.40
2023-04-27T01:07:31.477Z,3.40
2023-04-27T01:10:02.180Z,3.40
2023-04-27T01:12:30.195Z,3.40
2023-04-27T01:14:58.345Z,3.30
2023-04-27T01:17:26.395Z,3.30
2023-04-27T01:19:56.744Z,3.30
2023-04-27T01:22:27.209Z,3.20
2023-04-27T01:24:56.569Z,3.30
2023-04-27T01:27:30.101Z,3.30
2023-04-27T01:29:58.267Z,3.30
2023-04-27T01:32:26.792Z,3.30
2023-04-27T01:34:55.219Z,3.20
2023-04-27T01:37:25.731Z,3.20
2023-04-27T01:39:53.827Z,3.20
2023-04-27T01:42:26.204Z,3.20
2023-04-27T01:44:54.744Z,3.20
2023-04-27T01:47:22.693Z,3.20
2023-04-27T01:49:51.219Z,3.20
2023-04-27T01:52:24.958Z,3.10
2023-04-27T01:54:55.709Z,3.10
2023-04-27T01:57:23.708Z,3.10
2023-04-27T02:00:01.758Z,3.10
2023-04-27T02:02:29.938Z,3.00
2023-04-27T02:04:57.994Z,2.90
2023-04-27T02:07:26.220Z,2.90
2023-04-27T02:09:54.264Z,2.90
2023-04-27T02:12:22.231Z,2.80
2023-04-27T02:14:50.193Z,2.80
2023-04-27T02:17:19.493Z,2.80
2023-04-27T02:19:47.491Z,2.70
2023-04-27T02:22:16.219Z,2.70
2023-04-27T02:24:44.221Z,2.70
2023-04-27T02:27:12.848Z,2.70
2023-04-27T02:29:41.366Z,2.70
2023-04-27T02:32:10.968Z,2.60
2023-04-27T02:34:41.860Z,2.60
2023-04-27T02:37:09.812Z,2.60
2023-04-27T02:39:43.557Z,2.50
2023-04-27T02:42:14.631Z,2.50
2023-04-27T02:44:42.753Z,2.50
2023-04-27T02:47:10.796Z,2.50
2023-04-27T02:49:40.151Z,2.50
2023-04-27T02:52:08.377Z,2.50
2023-04-27T02:54:40.653Z,2.50
2023-04-27T02:57:08.614Z,2.40
2023-04-27T02:59:45.148Z,2.40
2023-04-27T03:02:13.118Z,2.40
2023-04-27T03:04:43.557Z,2.40
2023-04-27T03:07:12.881Z,2.40
2023-04-27T03:09:43.395Z,2.30
2023-04-27T03:12:11.404Z,2.30
2023-04-27T03:14:39.350Z,2.30
2023-04-27T03:17:07.325Z,2.30
2023-04-27T03:19:37.005Z,2.30
2023-04-27T03:22:08.650Z,2.30
2023-04-27T03:24:36.586Z,2.30
2023-04-27T03:27:04.588Z,2.30
2023-04-27T03:29:32.547Z,2.20
2023-04-27T03:32:01.024Z,2.20
2023-04-27T03:34:29.077Z,2.20
2023-04-27T03:36:57.717Z,2.20
2023-04-27T03:39:27.034Z,2.20
2023-04-27T03:41:55.022Z,2.20
2023-04-27T03:44:22.956Z,2.20
2023-04-27T03:46:51.353Z,2.20
2023-04-27T03:49:19.301Z,2.20
2023-04-27T03:51:47.265Z,2.20
2023-04-27T03:54:16.573Z,3.80
2023-04-27T03:56:46.649Z,2.20
2023-04-27T03:59:14.744Z,2.20
2023-04-27T04:01:42.997Z,2.60
2023-04-27T04:04:11.456Z,2.10
2023-04-27T04:06:39.553Z,2.10
2023-04-27T04:09:07.738Z,2.10
2023-04-27T04:11:35.663Z,2.10
2023-04-27T04:14:04.968Z,2.10
2023-04-27T04:16:34.293Z,2.20
2023-04-27T04:19:02.760Z,2.20
2023-04-27T04:21:31.833Z,2.20
2023-04-27T04:24:00.997Z,2.20
2023-04-27T04:26:28.992Z,2.20
2023-04-27T04:28:58.538Z,2.20
2023-04-27T04:31:27.929Z,2.30
2023-04-27T04:33:55.902Z,2.20
2023-04-27T04:36:23.967Z,2.30
2023-04-27T04:38:53.783Z,2.30
2023-04-27T04:41:21.854Z,2.30
2023-04-27T04:43:49.782Z,2.40
2023-04-27T04:46:17.803Z,2.40
2023-04-27T04:48:47.395Z,2.40
2023-04-27T04:51:15.476Z,2.40
2023-04-27T04:53:43.406Z,2.50
2023-04-27T04:56:12.078Z,2.50
2023-04-27T04:58:40.285Z,2.60
2023-04-27T05:01:08.455Z,2.60
2023-04-27T05:03:36.749Z,2.60
2023-04-27T05:06:07.210Z,2.70
2023-04-27T05:08:35.853Z,2.70
2023-04-27T05:11:03.846Z,2.70
2023-04-27T05:13:32.059Z,2.80
2023-04-27T05:16:00.077Z,2.80
2023-04-27T05:18:28.126Z,2.80
2023-04-27T05:20:56.148Z,2.90
2023-04-27T05:23:25.460Z,2.90
2023-04-27T05:25:53.418Z,3.00
2023-04-27T05:28:21.467Z,3.10
2023-04-27T05:30:49.499Z,3.20
2023-04-27T05:33:17.456Z,3.20
2023-04-27T05:35:45.535Z,3.30
2023-04-27T05:38:17.464Z,3.30
2023-04-27T05:40:46.792Z,3.40
2023-04-27T05:43:14.767Z,3.40
2023-04-27T05:45:42.766Z,3.50
2023-04-27T05:48:10.985Z,3.60
2023-04-27T05:50:38.970Z,3.70
2023-04-27T05:53:07.232Z,3.70
2023-04-27T05:55:35.236Z,3.80
2023-04-27T05:58:08.457Z,3.90
2023-04-27T06:00:38.329Z,3.90
2023-04-27T06:03:06.586Z,4.00
2023-04-27T06:05:34.935Z,4.10
2023-04-27T06:08:03.078Z,4.20
2023-04-27T06:10:31.042Z,4.20
2023-04-27T06:12:59.029Z,4.30
2023-04-27T06:15:29.758Z,4.40
2023-04-27T06:18:00.596Z,4.50
2023-04-27T06:20:28.774Z,4.60
2023-04-27T06:22:58.665Z,4.60
2023-04-27T06:25:27.480Z,4.70
2023-04-27T06:27:55.576Z,4.80
2023-04-27T06:30:23.670Z,4.90
2023-04-27T06:32:53.119Z,5.00
2023-04-27T06:35:21.490Z,5.00
2023-04-27T06:37:49.560Z,5.10
2023-04-27T06:40:19.537Z,5.20
2023-04-27T06:42:50.257Z,5.20
2023-04-27T06:45:18.185Z,5.30
2023-04-27T06:47:46.466Z,5.30
2023-04-27T06:50:16.965Z,5.40
2023-04-27T06:52:44.963Z,5.50
2023-04-27T06:55:12.989Z,5.60
2023-04-27T06:57:40.949Z,5.70
2023-04-27T07:00:13.338Z,5.70
2023-04-27T07:02:41.395Z,5.80
2023-04-27T07:05:09.519Z,5.90
2023-04-27T07:07:38.837Z,5.90
2023-04-27T07:10:07.451Z,6.00
2023-04-27T07:12:35.421Z,6.00
2023-04-27T07:15:04.485Z,6.00
2023-04-27T07:17:32.571Z,6.10
2023-04-27T07:20:00.689Z,6.10
2023-04-27T07:22:31.033Z,6.10
2023-04-27T07:25:00.524Z,6.20
2023-04-27T07:27:28.535Z,6.90
2023-04-27T07:29:56.738Z,6.40
2023-04-27T07:32:24.883Z,6.40
2023-04-27T07:34:54.510Z,6.40
2023-04-27T07:37:22.878Z,6.50
2023-04-27T07:39:51.932Z,6.50
2023-04-27T07:42:22.406Z,6.60
2023-04-27T07:44:52.052Z,6.70
2023-04-27T07:47:20.000Z,6.70
2023-04-27T07:49:48.142Z,6.70
2023-04-27T07:52:16.487Z,6.80
2023-04-27T07:54:44.563Z,6.80
2023-04-27T07:57:18.077Z,6.80
2023-04-27T07:59:47.502Z,6.90
2023-04-27T08:02:19.647Z,6.90
2023-04-27T08:04:48.949Z,7.00
2023-04-27T08:07:18.169Z,7.00
2023-04-27T08:09:46.449Z,7.10
2023-04-27T08:12:14.389Z,7.10
2023-04-27T08:14:44.074Z,7.20
2023-04-27T08:17:17.496Z,7.20
2023-04-27T08:19:45.631Z,7.30
2023-04-27T08:22:13.592Z,5.70
2023-04-27T08:24:41.558Z,7.40
2023-04-27T08:27:09.563Z,7.50
2023-04-27T08:29:37.569Z,7.60
2023-04-27T08:32:05.840Z,7.70
2023-04-27T08:34:35.464Z,7.80
2023-04-27T08:37:05.437Z,7.90
2023-04-27T08:39:33.416Z,8.00
2023-04-27T08:42:05.959Z,8.10
2023-04-27T08:44:35.469Z,8.20
2023-04-27T08:47:05.052Z,8.30
2023-04-27T08:49:32.990Z,8.40
2023-04-27T08:52:05.037Z,8.60
2023-04-27T08:54:33.610Z,8.60
2023-04-27T08:57:03.130Z,8.60
2023-04-27T08:59:32.992Z,8.70
2023-04-27T09:02:02.461Z,8.70
2023-04-27T09:04:38.572Z,8.70
2023-04-27T09:07:17.806Z,8.70
2023-04-27T09:09:48.257Z,8.70
2023-04-27T09:12:17.428Z,8.70
2023-04-27T09:14:50.984Z,8.70
2023-04-27T09:17:25.322Z,8.70
2023-04-27T09:19:53.507Z,8.60
2023-04-27T09:22:22.885Z,8.60
2023-04-27T09:24:54.180Z,8.70
2023-04-27T09:27:23.140Z,8.70
2023-04-27T09:29:51.278Z,8.60
2023-04-27T09:32:22.212Z,8.70
2023-04-27T09:34:50.181Z,8.70
2023-04-27T09:37:18.171Z,8.80
2023-04-27T09:39:48.235Z,8.80
2023-04-27T09:42:16.426Z,8.80
2023-04-27T09:44:44.448Z,8.80
2023-04-27T09:47:14.543Z,8.80
2023-04-27T09:49:44.860Z,8.80
2023-04-27T09:52:12.860Z,8.90
2023-04-27T09:54:40.945Z,8.90
2023-04-27T09:57:15.472Z,9.10
2023-04-27T09:59:53.684Z,9.20
2023-04-27T10:02:24.743Z,9.20
2023-04-27T10:05:07.074Z,9.20
2023-04-27T10:07:36.624Z,9.40
2023-04-27T10:10:05.109Z,9.50
2023-04-27T10:12:36.789Z,9.40
2023-04-27T10:15:13.555Z,9.40
2023-04-27T10:17:48.912Z,9.40
2023-04-27T10:20:29.504Z,9.40
2023-04-27T10:22:57.479Z,9.60
2023-04-27T10:25:26.885Z,9.70
2023-04-27T10:27:57.016Z,9.70
2023-04-27T10:30:25.846Z,9.90
2023-04-27T10:32:54.847Z,10.00
2023-04-27T10:35:23.372Z,10.20
2023-04-27T10:37:53.096Z,10.20
2023-04-27T10:40:25.764Z,10.20
2023-04-27T10:42:53.989Z,10.30
2023-04-27T10:45:31.815Z,10.40
2023-04-27T10:48:01.714Z,10.50
2023-04-27T10:50:29.955Z,10.40
2023-04-27T10:53:02.098Z,10.50
2023-04-27T10:55:30.813Z,10.40
2023-04-27T10:58:01.967Z,10.50
2023-04-27T11:00:31.928Z,10.40
2023-04-27T11:03:11.650Z,10.10
2023-04-27T11:05:39.795Z,10.60
2023-04-27T11:08:08.370Z,10.70
2023-04-27T11:10:37.075Z,10.60
2023-04-27T11:13:11.495Z,10.60
2023-04-27T11:15:45.049Z,10.80
2023-04-27T11:18:13.099Z,10.90
2023-04-27T11:20:41.113Z,11.10
2023-04-27T11:23:11.057Z,11.20
2023-04-27T11:25:39.320Z,11.30
2023-04-27T11:28:17.953Z,11.50
2023-04-27T11:30:47.720Z,11.50
2023-04-27T11:33:16.002Z,11.60
2023-04-27T11:35:43.999Z,11.60
2023-04-27T11:38:16.914Z,11.60
2023-04-27T11:40:44.898Z,11.60
2023-04-27T11:43:16.083Z,11.50
2023-04-27T11:45:44.958Z,11.50
2023-04-27T11:48:17.466Z,11.40
2023-04-27T11:50:48.140Z,11.40
2023-04-27T11:53:18.567Z,11.40
2023-04-27T11:55:53.203Z,11.40
2023-04-27T11:58:33.815Z,11.40
2023-04-27T12:01:04.446Z,11.30
2023-04-27T12:03:34.366Z,11.40
2023-04-27T12:06:21.613Z,11.40
2023-04-27T12:08:51.507Z,11.50
2023-04-27T12:11:19.484Z,11.40
2023-04-27T12:13:51.018Z,11.40
2023-04-27T12:16:19.137Z,11.30
2023-04-27T12:18:48.482Z,11.40
2023-04-27T12:21:16.851Z,11.50
2023-04-27T12:23:45.023Z,11.50
2023-04-27T12:26:14.984Z,11.40
2023-04-27T12:28:45.209Z,11.50
2023-04-27T12:31:14.884Z,11.60
2023-04-27T12:33:44.407Z,11.70
2023-04-27T12:36:13.758Z,11.70
2023-04-27T12:38:41.820Z,11.90
2023-04-27T12:41:10.064Z,11.90
2023-04-27T12:46:06.644Z,12.40
2023-04-27T12:48:34.807Z,12.50
2023-04-27T12:51:03.720Z,12.40
2023-04-27T12:53:33.432Z,12.40
2023-04-27T12:56:02.604Z,12.50
2023-04-27T12:58:31.124Z,12.50
2023-04-27T13:00:59.121Z,12.50
2023-04-27T13:03:27.310Z,12.40
2023-04-27T13:05:55.374Z,12.30
2023-04-27T13:08:23.532Z,12.40
2023-04-27T13:10:52.897Z,12.60
2023-04-27T13:13:20.957Z,12.70
2023-04-27T13:15:49.290Z,13.00
2023-04-27T13:18:17.321Z,13.30
2023-04-27T13:20:48.983Z,13.50
2023-04-27T13:23:16.979Z,13.70
2023-04-27T13:25:45.031Z,14.10
2023-04-27T13:28:19.058Z,14.40
2023-04-27T13:30:48.812Z,14.40
2023-04-27T13:33:23.145Z,14.30
2023-04-27T13:35:53.753Z,14.30
2023-04-27T13:38:21.846Z,14.10
2023-04-27T13:40:51.131Z,14.10
2023-04-27T13:43:23.543Z,14.20
2023-04-27T13:45:52.570Z,14.20
2023-04-27T13:48:20.697Z,14.30
2023-04-27T13:50:48.736Z,14.20
2023-04-27T13:53:17.171Z,14.10
2023-04-27T13:55:45.397Z,13.80
2023-04-27T13:58:13.729Z,13.80
2023-04-27T14:00:43.140Z,13.70
2023-04-27T14:03:11.903Z,13.60
2023-04-27T14:05:40.039Z,13.50
2023-04-27T14:08:08.077Z,13.50
2023-04-27T14:10:37.076Z,13.50
2023-04-27T14:13:05.182Z,13.40
2023-04-27T14:15:36.920Z,13.20
2023-04-27T14:18:07.689Z,13.90
2023-04-27T14:20:36.134Z,13.10
2023-04-27T14:23:05.007Z,13.00
2023-04-27T14:25:36.050Z,12.90
2023-04-27T14:28:05.944Z,12.80
2023-04-27T14:30:34.060Z,12.80
2023-04-27T14:33:02.744Z,12.80
2023-04-27T14:35:34.537Z,12.90
2023-04-27T14:38:03.331Z,12.90
2023-04-27T14:40:31.593Z,13.10
2023-04-27T14:42:59.834Z,13.30
2023-04-27T14:45:36.636Z,13.70
2023-04-27T14:48:12.003Z,14.00
2023-04-27T14:50:41.371Z,15.80
2023-04-27T14:53:09.409Z,16.80
2023-04-27T14:55:37.889Z,16.50
2023-04-27T14:58:05.852Z,15.40
2023-04-27T15:00:33.866Z,14.80
2023-04-27T15:03:01.953Z,14.30
2023-04-27T15:05:30.098Z,13.80
2023-04-27T15:07:59.701Z,13.30
2023-04-27T15:10:27.831Z,13.30
2023-04-27T15:12:55.837Z,13.00
2023-04-27T15:15:23.858Z,12.90
2023-04-27T15:17:51.890Z,12.90
2023-04-27T15:20:22.586Z,12.90
2023-04-27T15:22:50.582Z,12.90
2023-04-27T15:25:20.279Z,13.20
2023-04-27T15:27:49.487Z,13.90
2023-04-27T15:30:17.477Z,14.10
2023-04-27T15:32:45.622Z,13.80
2023-04-27T15:35:13.632Z,13.60
2023-04-27T15:37:41.618Z,13.90
2023-04-27T15:40:10.421Z,14.50
2023-04-27T15:42:39.861Z,14.70
2023-04-27T15:45:10.024Z,15.10
2023-04-27T15:47:40.748Z,15.40
2023-04-27T15:50:11.823Z,15.50
2023-04-27T15:52:41.192Z,15.60
2023-04-27T15:55:09.872Z,15.30
2023-04-27T15:57:41.777Z,15.20
2023-04-27T16:00:10.976Z,14.70
2023-04-27T16:02:40.196Z,14.70
2023-04-27T16:05:08.997Z,14.60
2023-04-27T16:07:39.419Z,14.40
2023-04-27T16:10:08.321Z,14.20
2023-04-27T16:12:36.712Z,14.10
2023-04-27T16:15:10.938Z,14.00
2023-04-27T16:17:42.005Z,14.00
2023-04-27T16:20:10.091Z,13.80
2023-04-27T16:22:38.444Z,13.60
2023-04-27T16:25:10.551Z,13.40
2023-04-27T16:27:40.748Z,13.30
2023-04-27T16:30:10.489Z,13.10
2023-04-27T16:32:38.666Z,13.10
2023-04-27T16:35:07.270Z,13.00
2023-04-27T16:37:38.361Z,12.90
2023-04-27T16:40:08.254Z,12.90
2023-04-27T16:42:36.550Z,12.60
2023-04-27T16:45:04.705Z,13.10
2023-04-27T16:47:35.057Z,12.50
2023-04-27T16:50:04.233Z,12.50
2023-04-27T16:52:32.241Z,12.50
2023-04-27T16:55:00.320Z,12.40
2023-04-27T16:57:28.740Z,12.20
2023-04-27T16:59:56.723Z,12.10
2023-04-27T17:02:25.867Z,12.00
2023-04-27T17:04:55.962Z,12.00
2023-04-27T17:07:24.064Z,11.90
2023-04-27T17:09:51.999Z,11.90
2023-04-27T17:12:20.196Z,11.70
2023-04-27T17:14:48.188Z,11.70
2023-04-27T17:17:16.244Z,11.70
2023-04-27T17:19:44.222Z,11.60
2023-04-27T17:22:14.807Z,11.70
2023-04-27T17:24:42.812Z,11.70
2023-04-27T17:27:11.120Z,11.70
2023-04-27T17:29:39.121Z,11.70
2023-04-27T17:32:07.304Z,11.60
2023-04-27T17:34:41.044Z,11.60
2023-04-27T17:37:10.964Z,11.60
2023-04-27T17:39:40.290Z,11.50
2023-04-27T17:42:12.222Z,11.50
2023-04-27T17:44:42.083Z,11.00
2023-04-27T17:47:10.274Z,11.30
2023-04-27T17:49:43.197Z,11.30
2023-04-27T17:52:11.232Z,11.30
2023-04-27T17:54:41.113Z,11.40
2023-04-27T17:57:09.366Z,11.30
2023-04-27T17:59:37.641Z,11.20
2023-04-27T18:02:07.589Z,11.20
2023-04-27T18:04:35.800Z,11.20
2023-04-27T18:07:03.986Z,11.20
2023-04-27T18:09:32.960Z,11.30
2023-04-27T18:12:03.075Z,11.20
2023-04-27T18:14:31.241Z,11.00
2023-04-27T18:16:59.652Z,11.10
2023-04-27T18:19:27.876Z,11.00
2023-04-27T18:21:56.256Z,11.00
2023-04-27T18:24:24.293Z,10.80
2023-04-27T18:26:52.594Z,10.80
2023-04-27T18:29:25.732Z,10.60
2023-04-27T18:31:58.379Z,11.20
2023-04-27T18:34:26.792Z,10.60
2023-04-27T18:36:54.741Z,10.50
2023-04-27T18:39:23.151Z,10.40
2023-04-27T18:41:51.133Z,10.30
2023-04-27T18:44:19.119Z,10.20
2023-04-27T18:46:48.447Z,10.20
2023-04-27T18:49:16.534Z,10.10
2023-04-27T18:51:44.786Z,10.10
2023-04-27T18:54:12.846Z,10.00
2023-04-27T18:56:40.951Z,9.90
2023-04-27T18:59:09.379Z,9.70
2023-04-27T19:01:40.620Z,9.70
2023-04-27T19:04:10.570Z,9.70
2023-04-27T19:06:38.702Z,9.70
2023-04-27T19:09:07.813Z,9.60
2023-04-27T19:11:36.001Z,9.60
2023-04-27T19:14:04.054Z,9.50
2023-04-27T19:16:32.117Z,9.50
2023-04-27T19:19:00.183Z,9.40
2023-04-27T19:21:29.587Z,9.40
2023-04-27T19:23:57.644Z,9.40
2023-04-27T19:26:26.710Z,9.30
2023-04-27T19:28:55.996Z,9.30
2023-04-27T19:31:24.047Z,9.30
2023-04-27T19:33:55.270Z,9.20
2023-04-27T19:36:24.643Z,9.20
2023-04-27T19:38:54.064Z,9.20
2023-04-27T19:41:22.196Z,9.10
2023-04-27T19:43:50.458Z,9.10
2023-04-27T19:46:21.275Z,9.10
2023-04-27T19:48:49.273Z,9.00
2023-04-27T19:51:20.179Z,9.00
2023-04-27T19:53:48.139Z,9.00
2023-04-27T19:56:17.500Z,8.90
2023-04-27T19:58:45.500Z,8.90
2023-04-27T20:01:13.658Z,8.90
2023-04-27T20:03:41.798Z,8.80
2023-04-27T20:06:10.480Z,8.80
2023-04-27T20:08:38.635Z,8.70
2023-04-27T20:11:06.691Z,8.80
2023-04-27T20:13:36.046Z,8.70
2023-04-27T20:16:05.129Z,8.70
2023-04-27T20:18:33.202Z,8.70
2023-04-27T20:21:01.162Z,8.70
2023-04-27T20:23:29.164Z,8.70
2023-04-27T20:25:57.176Z,8.60
2023-04-27T20:28:25.123Z,8.60
2023-04-27T20:30:54.474Z,8.60
2023-04-27T20:33:22.483Z,8.50
2023-04-27T20:35:55.530Z,8.50
2023-04-27T20:38:25.136Z,8.50
2023-04-27T20:40:53.806Z,8.40
2023-04-27T20:43:21.802Z,8.40
2023-04-27T20:45:49.843Z,8.40
2023-04-27T20:48:19.261Z,8.40
2023-04-27T20:50:50.298Z,8.40
2023-04-27T20:53:18.260Z,8.40
2023-04-27T20:55:47.087Z,8.40
2023-04-27T20:58:15.021Z,8.30
2023-04-27T21:00:42.996Z,8.30
2023-04-27T21:03:11.615Z,8.30
2023-04-27T21:05:42.072Z,8.20
2023-04-27T21:08:10.165Z,8.20
2023-04-27T21:10:38.221Z,8.10
2023-04-27T21:13:06.360Z,8.10
2023-04-27T21:15:34.505Z,8.10
2023-04-27T21:18:04.312Z,8.10
2023-04-27T21:20:32.357Z,8.00
2023-04-27T21:23:01.767Z,8.10
2023-04-27T21:25:29.823Z,8.00
2023-04-27T21:27:57.846Z,8.00
2023-04-27T21:30:25.834Z,7.90
2023-04-27T21:32:53.849Z,7.80
2023-04-27T21:35:23.924Z,7.80
2023-04-27T21:37:52.225Z,7.80
2023-04-27T21:40:21.841Z,7.80
2023-04-27T21:42:51.061Z,7.80
2023-04-27T21:45:19.019Z,7.80
2023-04-27T21:47:47.000Z,7.70
2023-04-27T21:50:16.405Z,7.80
2023-04-27T21:52:44.445Z,7.80
2023-04-27T21:55:12.489Z,7.70
2023-04-27T21:57:41.944Z,6.70
2023-04-27T22:00:13.677Z,7.70
2023-04-27T22:02:42.446Z,7.60
2023-04-27T22:05:10.744Z,7.60
2023-04-27T22:07:38.877Z,7.60
2023-04-27T22:10:07.501Z,7.60
2023-04-27T22:12:35.828Z,7.50
2023-04-27T22:15:05.470Z,7.50
2023-04-27T22:17:33.542Z,7.40
2023-04-27T22:20:01.513Z,7.40
2023-04-27T22:22:29.519Z,7.40
2023-04-27T22:24:57.478Z,7.40
2023-04-27T22:27:30.076Z,7.30
2023-04-27T22:30:03.167Z,7.30
2023-04-27T22:32:32.674Z,7.20
2023-04-27T22:35:01.431Z,7.20
2023-04-27T22:37:29.738Z,7.20
2023-04-27T22:39:57.792Z,7.20
2023-04-27T22:42:25.871Z,7.20
2023-04-27T22:44:53.848Z,7.10
2023-04-27T22:47:21.891Z,7.00
2023-04-27T22:49:51.216Z,7.00
2023-04-27T22:52:19.469Z,7.00
2023-04-27T22:54:47.458Z,7.00
2023-04-27T22:57:15.428Z,6.90
2023-04-27T22:59:43.446Z,6.90
2023-04-27T23:02:11.494Z,6.80
2023-04-27T23:04:41.026Z,6.80
2023-04-27T23:07:10.584Z,6.80
2023-04-27T23:09:40.076Z,6.80
2023-04-27T23:12:09.005Z,6.80
2023-04-27T23:14:36.929Z,6.80
2023-04-27T23:17:05.186Z,6.60
2023-04-27T23:19:33.460Z,6.60
2023-04-27T23:22:01.517Z,6.60
2023-04-27T23:24:31.260Z,6.60
2023-04-27T23:26:59.215Z,6.70
2023-04-27T23:29:27.871Z,6.60
2023-04-27T23:31:55.894Z,6.60
2023-04-27T23:34:23.846Z,6.60
2023-04-27T23:36:51.821Z,6.50
2023-04-27T23:39:19.824Z,6.50
2023-04-27T23:44:18.866Z,6.40
2023-04-27T23:46:46.975Z,6.40
2023-04-27T23:49:14.957Z,6.30
2023-04-27T23:51:42.908Z,6.30
2023-04-27T23:54:10.874Z,6.30
2023-04-27T23:56:38.798Z,6.30
2023-04-27T23:59:06.741Z,6.30
